createdAt,value
2022-10-30T00:00:43.142Z,15.00
2022-10-30T00:04:46.112Z,14.90
2022-10-30T00:08:48.956Z,14.80
2022-10-30T00:12:51.972Z,14.70
2022-10-30T00:16:54.742Z,14.70
2022-10-30T00:20:57.627Z,14.60
2022-10-30T00:25:00.425Z,14.50
2022-10-30T00:29:03.231Z,14.40
2022-10-30T00:33:06.103Z,14.30
2022-10-30T00:37:10.322Z,14.10
2022-10-30T00:41:18.190Z,14.00
2022-10-30T00:45:21.029Z,13.90
2022-10-30T00:49:24.827Z,13.90
2022-10-30T00:53:29.230Z,13.70
2022-10-30T00:57:32.657Z,13.60
2022-10-30T01:01:39.593Z,13.60
2022-10-30T01:05:45.727Z,13.50
2022-10-30T01:09:49.205Z,13.50
2022-10-30T01:13:55.590Z,13.40
2022-10-30T01:18:02.921Z,13.40
2022-10-30T01:22:24.603Z,13.40
2022-10-30T01:26:45.642Z,13.40
2022-10-30T01:31:03.584Z,13.40
2022-10-30T01:35:21.333Z,13.40
2022-10-30T01:39:27.452Z,13.40
2022-10-30T01:43:31.261Z,13.40
2022-10-30T01:47:59.856Z,13.30
2022-10-30T01:52:45.537Z,13.30
2022-10-30T01:57:07.111Z,13.30
2022-10-30T02:01:13.349Z,13.20
2022-10-30T02:05:31.167Z,13.10
2022-10-30T02:09:34.666Z,13.10
2022-10-30T02:13:38.613Z,13.00
2022-10-30T02:17:41.685Z,12.90
2022-10-30T02:21:44.628Z,12.80
2022-10-30T02:25:48.398Z,12.70
2022-10-30T02:29:51.170Z,12.60
2022-10-30T02:33:54.011Z,12.60
2022-10-30T02:37:57.181Z,12.50
2022-10-30T02:42:02.247Z,12.50
2022-10-30T02:46:05.775Z,12.40
2022-10-30T02:50:09.991Z,12.40
2022-10-30T02:54:13.737Z,12.30
2022-10-30T02:58:17.288Z,12.20
2022-10-30T03:02:20.222Z,12.20
2022-10-30T03:06:23.245Z,12.10
2022-10-30T03:10:26.758Z,12.10
2022-10-30T03:14:29.747Z,12.10
2022-10-30T03:18:32.901Z,12.00
2022-10-30T03:22:41.034Z,12.00
2022-10-30T03:26:43.785Z,11.80
2022-10-30T03:30:47.251Z,11.80
2022-10-30T03:34:50.007Z,11.80
2022-10-30T03:38:54.935Z,11.90
2022-10-30T03:42:58.145Z,11.90
2022-10-30T03:47:01.242Z,11.80
2022-10-30T03:51:24.415Z,11.80
2022-10-30T03:55:27.273Z,11.80
2022-10-30T03:59:30.438Z,11.70
2022-10-30T04:03:59.164Z,11.60
2022-10-30T04:08:05.276Z,11.50
2022-10-30T04:12:11.507Z,11.50
2022-10-30T04:16:14.342Z,11.50
2022-10-30T04:20:22.313Z,11.40
2022-10-30T04:24:25.135Z,11.40
2022-10-30T04:28:30.927Z,11.30
2022-10-30T04:32:33.976Z,11.30
2022-10-30T04:36:36.836Z,11.40
2022-10-30T04:40:43.275Z,11.30
2022-10-30T04:44:47.360Z,11.30
2022-10-30T04:48:50.170Z,11.30
2022-10-30T04:52:59.910Z,11.20
2022-10-30T04:57:02.902Z,11.20
2022-10-30T05:01:07.777Z,11.10
2022-10-30T05:05:12.457Z,11.10
2022-10-30T05:09:15.785Z,11.10
2022-10-30T05:13:19.086Z,11.00
2022-10-30T05:17:21.939Z,11.00
2022-10-30T05:21:26.771Z,11.00
2022-10-30T05:25:30.503Z,10.90
2022-10-30T05:29:35.885Z,10.90
2022-10-30T05:33:38.984Z,10.80
2022-10-30T05:37:41.829Z,10.70
2022-10-30T05:41:44.776Z,10.80
2022-10-30T05:45:50.100Z,10.80
2022-10-30T05:49:54.071Z,10.80
2022-10-30T05:54:01.079Z,10.70
2022-10-30T05:58:06.878Z,10.80
2022-10-30T06:02:14.225Z,10.80
2022-10-30T06:06:17.931Z,10.90
2022-10-30T06:10:21.554Z,10.90
2022-10-30T06:14:40.808Z,10.90
2022-10-30T06:18:43.659Z,11.00
2022-10-30T06:22:59.166Z,11.00
2022-10-30T06:27:09.402Z,11.10
2022-10-30T06:31:12.228Z,11.00
2022-10-30T06:35:16.828Z,11.00
2022-10-30T06:39:19.733Z,11.00
2022-10-30T06:43:43.743Z,11.00
2022-10-30T06:47:53.103Z,11.00
2022-10-30T06:51:55.878Z,11.00
2022-10-30T06:56:01.406Z,11.10
2022-10-30T07:00:18.532Z,11.30
2022-10-30T07:04:41.988Z,11.40
2022-10-30T07:08:44.922Z,11.60
2022-10-30T07:12:54.905Z,11.80
2022-10-30T07:17:15.055Z,12.10
2022-10-30T07:21:23.608Z,12.40
2022-10-30T07:25:26.678Z,12.50
2022-10-30T07:29:41.180Z,12.60
2022-10-30T07:34:09.269Z,12.80
2022-10-30T07:38:25.139Z,13.10
2022-10-30T07:42:33.924Z,13.20
2022-10-30T07:46:59.926Z,13.30
2022-10-30T07:51:21.925Z,13.50
2022-10-30T07:55:25.672Z,13.80
2022-10-30T07:59:28.478Z,14.00
2022-10-30T08:03:55.778Z,14.10
2022-10-30T08:08:03.747Z,14.30
2022-10-30T08:12:07.418Z,14.50
2022-10-30T08:16:10.238Z,14.60
2022-10-30T08:20:15.543Z,14.90
2022-10-30T08:24:19.225Z,15.20
2022-10-30T08:28:28.286Z,15.50
2022-10-30T08:32:34.760Z,15.80
2022-10-30T08:37:03.389Z,16.00
2022-10-30T08:41:06.366Z,16.40
2022-10-30T08:45:14.168Z,16.70
2022-10-30T08:49:39.784Z,17.10
2022-10-30T08:53:42.665Z,17.20
2022-10-30T08:57:49.547Z,17.50
2022-10-30T09:01:52.491Z,17.50
2022-10-30T09:05:57.652Z,17.60
2022-10-30T09:10:19.138Z,17.90
2022-10-30T09:14:22.082Z,18.10
2022-10-30T09:18:25.551Z,18.40
2022-10-30T09:22:29.605Z,18.60
2022-10-30T09:26:32.578Z,19.00
2022-10-30T09:30:57.953Z,19.20
2022-10-30T09:35:03.205Z,19.40
2022-10-30T09:39:14.331Z,19.60
2022-10-30T09:43:42.095Z,19.70
2022-10-30T09:47:50.926Z,19.90
2022-10-30T09:52:14.289Z,20.10
2022-10-30T09:56:59.509Z,20.40
2022-10-30T10:01:28.165Z,20.60
2022-10-30T10:05:59.286Z,20.80
2022-10-30T10:10:59.740Z,20.80
2022-10-30T10:15:09.589Z,21.00
2022-10-30T10:19:19.505Z,21.20
2022-10-30T10:23:41.524Z,21.60
2022-10-30T10:28:07.708Z,21.90
2022-10-30T10:32:16.346Z,22.10
2022-10-30T10:37:05.129Z,22.40
2022-10-30T10:41:19.382Z,22.60
2022-10-30T10:45:37.718Z,22.80
2022-10-30T10:50:01.713Z,22.80
2022-10-30T10:54:16.701Z,22.90
2022-10-30T10:58:29.688Z,23.10
2022-10-30T11:03:04.145Z,23.40
2022-10-30T11:07:26.933Z,23.60
2022-10-30T11:11:29.817Z,23.60
2022-10-30T11:15:50.320Z,23.70
2022-10-30T11:20:03.124Z,23.80
2022-10-30T11:24:27.571Z,24.00
2022-10-30T11:28:44.228Z,24.00
2022-10-30T11:32:47.526Z,24.20
2022-10-30T11:36:52.620Z,24.30
2022-10-30T11:40:55.577Z,24.50
2022-10-30T11:44:58.901Z,24.70
2022-10-30T11:49:02.520Z,24.80
2022-10-30T11:53:16.640Z,24.80
2022-10-30T11:57:23.622Z,25.00
2022-10-30T12:01:29.455Z,25.10
2022-10-30T12:05:36.123Z,25.20
2022-10-30T12:09:46.841Z,25.20
2022-10-30T12:13:49.545Z,25.20
2022-10-30T12:18:41.280Z,25.20
2022-10-30T12:22:44.298Z,25.30
2022-10-30T12:26:51.299Z,25.10
2022-10-30T12:31:03.167Z,25.00
2022-10-30T12:35:35.870Z,25.10
2022-10-30T12:39:38.665Z,25.30
2022-10-30T12:43:44.194Z,25.50
2022-10-30T12:48:03.885Z,25.30
2022-10-30T12:52:42.287Z,25.30
2022-10-30T12:56:49.422Z,25.40
2022-10-30T13:01:01.497Z,25.30
2022-10-30T13:05:26.665Z,25.30
2022-10-30T13:10:22.206Z,25.30
2022-10-30T13:14:50.039Z,25.20
2022-10-30T13:18:56.768Z,25.20
2022-10-30T13:23:26.261Z,25.20
2022-10-30T13:28:06.463Z,25.30
2022-10-30T13:32:12.294Z,25.30
2022-10-30T13:36:40.611Z,25.30
2022-10-30T13:41:06.641Z,25.20
2022-10-30T13:45:28.259Z,25.20
2022-10-30T13:49:42.535Z,25.20
2022-10-30T13:53:49.732Z,25.20
2022-10-30T13:58:26.488Z,25.30
2022-10-30T14:02:45.874Z,25.40
2022-10-30T14:06:48.735Z,25.30
2022-10-30T14:11:00.659Z,25.30
2022-10-30T14:15:25.770Z,25.30
2022-10-30T14:19:28.626Z,25.30
2022-10-30T14:23:36.562Z,25.30
2022-10-30T14:27:40.033Z,25.40
2022-10-30T14:31:42.806Z,25.40
2022-10-30T14:35:45.996Z,25.40
2022-10-30T14:39:50.598Z,25.40
2022-10-30T14:43:59.403Z,25.50
2022-10-30T14:48:24.318Z,25.50
2022-10-30T14:53:01.613Z,25.60
2022-10-30T14:57:19.693Z,25.60
2022-10-30T15:01:33.798Z,25.50
2022-10-30T15:06:07.178Z,25.50
2022-10-30T15:10:19.084Z,25.50
2022-10-30T15:14:48.495Z,25.60
2022-10-30T15:19:05.531Z,25.60
2022-10-30T15:23:16.558Z,25.70
2022-10-30T15:27:22.252Z,25.80
2022-10-30T15:31:27.074Z,25.80
2022-10-30T15:35:29.897Z,25.80
2022-10-30T15:39:32.763Z,25.60
2022-10-30T15:43:39.544Z,25.30
2022-10-30T15:47:52.656Z,24.90
2022-10-30T15:51:56.000Z,24.50
2022-10-30T15:56:00.130Z,23.90
2022-10-30T16:00:08.036Z,23.40
2022-10-30T16:04:36.499Z,22.90
2022-10-30T16:08:48.509Z,22.40
2022-10-30T16:12:53.064Z,21.90
2022-10-30T16:17:00.221Z,21.50
2022-10-30T16:21:07.113Z,21.20
2022-10-30T16:25:12.950Z,20.90
2022-10-30T16:29:18.653Z,20.60
2022-10-30T16:33:26.323Z,20.50
2022-10-30T16:37:38.522Z,20.30
2022-10-30T16:41:41.339Z,20.20
2022-10-30T16:45:49.421Z,20.00
2022-10-30T16:49:57.891Z,20.00
2022-10-30T16:54:00.971Z,19.80
2022-10-30T16:58:04.181Z,19.80
2022-10-30T17:02:26.534Z,19.70
2022-10-30T17:06:43.375Z,19.70
2022-10-30T17:11:07.548Z,19.70
2022-10-30T17:15:14.952Z,19.80
2022-10-30T17:19:33.075Z,19.70
2022-10-30T17:23:36.480Z,19.70
2022-10-30T17:27:47.265Z,19.60
2022-10-30T17:31:50.416Z,19.50
2022-10-30T17:39:57.159Z,19.30
2022-10-30T17:44:01.356Z,19.10
2022-10-30T17:48:14.160Z,19.00
2022-10-30T17:52:21.587Z,18.90
2022-10-30T17:56:31.584Z,18.70
2022-10-30T18:00:34.399Z,18.50
2022-10-30T18:04:37.379Z,18.40
2022-10-30T18:08:40.212Z,18.40
2022-10-30T18:12:44.853Z,18.30
2022-10-30T18:16:52.830Z,18.20
2022-10-30T18:20:58.292Z,18.20
2022-10-30T18:25:01.292Z,18.20
2022-10-30T18:29:04.406Z,18.20
2022-10-30T18:33:10.864Z,18.10
2022-10-30T18:37:14.922Z,18.10
2022-10-30T18:41:19.535Z,18.00
2022-10-30T18:45:28.235Z,18.00
2022-10-30T18:49:33.581Z,18.00
2022-10-30T18:53:52.119Z,18.00
2022-10-30T18:57:58.688Z,18.00
2022-10-30T19:02:02.417Z,17.90
2022-10-30T19:06:09.870Z,17.80
2022-10-30T19:10:13.005Z,17.70
2022-10-30T19:14:18.452Z,17.50
2022-10-30T19:18:21.720Z,17.40
2022-10-30T19:22:24.582Z,17.20
2022-10-30T19:26:27.621Z,17.10
2022-10-30T19:30:30.553Z,17.00
2022-10-30T19:34:33.567Z,16.90
2022-10-30T19:38:36.397Z,16.70
2022-10-30T19:42:39.264Z,16.70
2022-10-30T19:46:42.189Z,16.70
2022-10-30T19:50:46.523Z,16.70
2022-10-30T19:54:50.817Z,16.70
2022-10-30T19:58:53.799Z,16.60
2022-10-30T20:02:58.487Z,16.70
2022-10-30T20:07:02.602Z,16.60
2022-10-30T20:11:06.103Z,16.50
2022-10-30T20:15:14.474Z,16.50
2022-10-30T20:19:35.419Z,16.30
2022-10-30T20:23:39.112Z,16.20
2022-10-30T20:27:43.916Z,16.20
2022-10-30T20:31:50.032Z,16.20
2022-10-30T20:35:54.814Z,16.20
2022-10-30T20:39:57.899Z,16.10
2022-10-30T20:44:01.050Z,16.10
2022-10-30T20:48:04.195Z,16.00
2022-10-30T20:52:07.118Z,16.00
2022-10-30T20:56:11.692Z,15.90
2022-10-30T21:00:18.661Z,15.80
2022-10-30T21:04:21.482Z,15.70
2022-10-30T21:08:29.053Z,15.60
2022-10-30T21:12:35.120Z,15.50
2022-10-30T21:16:42.948Z,15.40
2022-10-30T21:20:48.097Z,15.30
2022-10-30T21:24:53.781Z,15.20
2022-10-30T21:28:59.300Z,15.20
2022-10-30T21:33:02.522Z,15.10
2022-10-30T21:37:05.924Z,15.10
2022-10-30T21:41:13.684Z,15.00
2022-10-30T21:45:16.989Z,15.00
2022-10-30T21:49:20.118Z,14.90
2022-10-30T21:53:23.027Z,14.80
2022-10-30T21:57:25.956Z,14.80
2022-10-30T22:01:31.674Z,14.80
2022-10-30T22:05:34.607Z,14.70
2022-10-30T22:09:37.850Z,14.60
2022-10-30T22:13:41.329Z,14.60
2022-10-30T22:17:44.188Z,14.50
2022-10-30T22:21:47.011Z,14.50
2022-10-30T22:26:00.972Z,14.40
2022-10-30T22:30:04.080Z,14.40
2022-10-30T22:34:07.074Z,14.30
2022-10-30T22:38:10.381Z,14.30
2022-10-30T22:42:13.215Z,14.30
2022-10-30T22:46:18.130Z,14.30
2022-10-30T22:50:21.089Z,14.20
2022-10-30T22:54:23.996Z,14.20
2022-10-30T22:58:30.838Z,14.10
2022-10-30T23:02:34.366Z,14.00
2022-10-30T23:06:37.566Z,14.00
2022-10-30T23:10:40.402Z,13.90
2022-10-30T23:14:43.168Z,13.80
2022-10-30T23:18:46.745Z,13.70
2022-10-30T23:22:49.679Z,13.60
2022-10-30T23:26:53.672Z,13.60
2022-10-30T23:30:56.741Z,13.60
2022-10-30T23:34:59.574Z,13.50
2022-10-30T23:39:05.318Z,13.50
2022-10-30T23:43:08.206Z,13.50
2022-10-30T23:47:11.074Z,13.40
2022-10-30T23:51:14.311Z,13.30
2022-10-30T23:55:17.294Z,13.20
2022-10-30T23:59:20.048Z,13.20
